Time;durP1;ratioP1;P1;durP2;ratioP2;P2;SDS_P1;SDS_P2;PMS_P1;PMS_P2;Temp;Humidity;BMP_temperature;BMP_pressure;BME280_temperature;BME280_humidity;BME280_pressure;Samples;Min_cycle;Max_cycle;Signal;HPM_P1;HPM_P2
2022/07/04 00:01:16;;;;;;;4.03;3.63;;;22.70;1.00;;;;;;6118990;23;20463;-81
2022/07/04 00:03:50;;;;;;;3.70;3.40;;;22.80;1.00;;;;;;6128145;23;20419;-86
2022/07/04 00:06:26;;;;;;;3.50;3.23;;;22.80;1.00;;;;;;6117500;23;21019;-83
2022/07/04 00:08:54;;;;;;;4.10;3.80;;;22.70;1.00;;;;;;6112685;23;20401;-86
2022/07/04 00:11:26;;;;;;;4.10;3.70;;;22.70;1.00;;;;;;6117999;23;20505;-80
2022/07/04 00:13:55;;;;;;;4.33;3.93;;;22.80;1.00;;;;;;6114775;23;20429;-79
2022/07/04 00:16:27;;;;;;;3.20;2.90;;;22.70;1.00;;;;;;6115517;23;20397;-84
2022/07/04 00:18:55;;;;;;;4.20;3.20;;;22.70;1.00;;;;;;6115813;23;20428;-80
2022/07/04 00:21:30;;;;;;;3.43;3.00;;;22.70;1.00;;;;;;6121879;23;20380;-82
2022/07/04 00:24:06;;;;;;;4.23;3.27;;;22.70;1.00;;;;;;6117020;23;20464;-81
2022/07/04 00:26:33;;;;;;;3.17;2.97;;;22.60;1.00;;;;;;6121306;23;20418;-80
2022/07/04 00:29:00;;;;;;;4.57;2.90;;;22.50;1.00;;;;;;6116131;23;20535;-80
2022/07/04 00:31:27;;;;;;;6.77;3.80;;;22.40;1.00;;;;;;6119641;23;20456;-82
2022/07/04 00:33:54;;;;;;;3.20;2.90;;;22.30;1.00;;;;;;6116204;23;20413;-80
2022/07/04 00:36:28;;;;;;;4.03;3.13;;;22.30;1.00;;;;;;6119953;23;20401;-85
2022/07/04 00:38:56;;;;;;;4.00;3.70;;;22.20;1.00;;;;;;6120589;23;20873;-81
2022/07/04 00:41:32;;;;;;;3.20;2.93;;;22.10;1.00;;;;;;6117560;23;20433;-81
2022/07/04 00:44:09;;;;;;;3.57;3.27;;;22.10;1.00;;;;;;6120883;23;20398;-85
2022/07/04 00:49:19;;;;;;;4.03;3.73;;;22.00;1.00;;;;;;6121382;23;20448;-85
2022/07/04 00:51:48;;;;;;;3.10;2.90;;;22.00;1.00;;;;;;6099601;23;20401;-87
2022/07/04 00:54:17;;;;;;;3.70;3.30;;;22.00;1.00;;;;;;6116511;23;20417;-81
2022/07/04 00:59:49;;;;;;;4.07;3.40;;;21.90;1.00;;;;;;6114350;23;20519;-83
2022/07/04 01:02:16;;;;;;;3.47;3.27;;;21.90;1.00;;;;;;6117319;23;20423;-84
2022/07/04 01:04:50;;;;;;;2.93;2.73;;;21.80;1.00;;;;;;6118516;23;20408;-85
2022/07/04 01:07:17;;;;;;;4.17;3.77;;;21.80;1.00;;;;;;6115738;23;20435;-83
2022/07/04 01:09:49;;;;;;;4.67;3.40;;;21.80;1.00;;;;;;6115437;23;20397;-82
2022/07/04 01:12:29;;;;;;;3.00;2.70;;;21.70;1.00;;;;;;6113220;23;20874;-82
2022/07/04 01:14:56;;;;;;;3.93;3.10;;;21.70;1.00;;;;;;6112381;23;20544;-83
2022/07/04 01:17:28;;;;;;;3.17;2.97;;;21.60;1.00;;;;;;6113919;23;20419;-83
2022/07/04 01:19:55;;;;;;;3.50;3.20;;;21.60;1.00;;;;;;6111672;23;20504;-83
2022/07/04 01:22:31;;;;;;;3.30;3.10;;;21.50;1.00;;;;;;6113128;23;20566;-83
2022/07/04 01:24:57;;;;;;;4.63;3.60;;;21.50;1.00;;;;;;6110320;23;20423;-82
2022/07/04 01:27:27;;;;;;;3.77;3.47;;;21.40;1.00;;;;;;6113994;23;20424;-85
2022/07/04 01:29:54;;;;;;;3.53;3.33;;;21.40;1.00;;;;;;6094632;23;20523;-84
2022/07/04 01:32:27;;;;;;;4.37;3.23;;;21.40;1.00;;;;;;6110800;23;20432;-82
2022/07/04 01:34:58;;;;;;;4.40;4.00;;;21.30;1.00;;;;;;6107521;23;20429;-82
2022/07/04 01:37:26;;;;;;;4.90;3.80;;;21.20;1.00;;;;;;6111954;23;20397;-81
2022/07/04 01:39:58;;;;;;;3.57;3.27;;;21.20;1.00;;;;;;6111794;23;20397;-81
2022/07/04 01:42:25;;;;;;;4.13;3.83;;;21.10;1.00;;;;;;6112020;23;20433;-80
2022/07/04 01:44:57;;;;;;;3.83;3.50;;;21.10;1.00;;;;;;6111321;23;20444;-81
2022/07/04 01:47:23;;;;;;;4.20;3.80;;;21.10;1.00;;;;;;6113297;23;21239;-84
2022/07/04 01:49:50;;;;;;;3.80;3.60;;;21.10;1.00;;;;;;6112924;23;20456;-80
2022/07/04 01:52:18;;;;;;;3.87;3.57;;;21.00;1.00;;;;;;6112805;23;20417;-82
2022/07/04 01:54:47;;;;;;;3.20;3.00;;;20.90;1.00;;;;;;6110600;23;20429;-80
2022/07/04 01:57:15;;;;;;;4.17;3.47;;;20.90;1.00;;;;;;6110524;23;20392;-81
2022/07/04 02:02:27;;;;;;;3.60;3.33;;;20.70;1.00;;;;;;6110819;23;20464;-81
2022/07/04 02:04:57;;;;;;;3.97;3.67;;;20.60;1.00;;;;;;6111040;23;20503;-82
2022/07/04 02:07:24;;;;;;;3.93;3.63;;;20.60;1.00;;;;;;6111082;23;20508;-82
2022/07/04 02:09:57;;;;;;;3.90;3.70;;;20.50;1.00;;;;;;6111340;23;20424;-85
2022/07/04 02:15:09;;;;;;;4.13;3.83;;;20.30;1.00;;;;;;6111536;23;20425;-82
2022/07/04 02:17:40;;;;;;;4.17;3.90;;;20.30;1.00;;;;;;6112762;23;20412;-80
2022/07/04 02:20:09;;;;;;;4.77;4.47;;;20.20;1.00;;;;;;6111662;23;20444;-85
2022/07/04 02:22:37;;;;;;;5.33;4.87;;;20.20;1.00;;;;;;6112413;23;20451;-84
2022/07/04 02:25:06;;;;;;;4.67;4.27;;;20.10;1.00;;;;;;6110156;23;20465;-80
2022/07/04 02:27:42;;;;;;;4.57;4.27;;;20.10;1.00;;;;;;6108023;23;20440;-80
2022/07/04 02:30:09;;;;;;;5.20;4.70;;;20.10;1.00;;;;;;6108781;23;20416;-80
2022/07/04 02:32:39;;;;;;;6.03;5.00;;;20.10;1.00;;;;;;6108951;23;20432;-82
2022/07/04 02:35:09;;;;;;;6.20;5.57;;;20.00;1.00;;;;;;6102955;23;20446;-80
2022/07/04 02:37:37;;;;;;;6.47;5.90;;;19.90;1.00;;;;;;6123878;23;20434;-80
2022/07/04 02:40:08;;;;;;;6.17;5.77;;;19.80;1.00;;;;;;6135212;23;21253;-81
2022/07/04 02:42:37;;;;;;;6.80;6.20;;;19.80;1.00;;;;;;6118246;23;20423;-81
2022/07/04 02:45:04;;;;;;;6.27;5.77;;;19.80;1.00;;;;;;6131664;23;20455;-82
2022/07/04 02:47:34;;;;;;;6.93;6.43;;;19.70;1.00;;;;;;6135042;23;20491;-81
2022/07/04 02:50:02;;;;;;;7.03;6.43;;;19.70;1.00;;;;;;6136032;23;20424;-81
2022/07/04 02:52:29;;;;;;;7.40;6.80;;;19.60;1.00;;;;;;6135250;23;20399;-81
2022/07/04 02:54:56;;;;;;;8.23;7.60;;;19.50;1.00;;;;;;6133941;23;20392;-81
2022/07/04 02:57:24;;;;;;;8.97;8.37;;;19.50;1.00;;;;;;6135292;23;20864;-81
2022/07/04 02:59:56;;;;;;;8.70;8.10;;;19.40;1.00;;;;;;6137604;23;20837;-84
2022/07/04 03:02:22;;;;;;;9.93;9.23;;;19.40;1.00;;;;;;6137580;23;20435;-84
2022/07/04 03:04:49;;;;;;;14.90;8.63;;;19.30;1.00;;;;;;6136118;23;20518;-81
2022/07/04 03:07:18;;;;;;;9.77;9.17;;;19.30;1.00;;;;;;6138933;23;20399;-82
2022/07/04 03:09:45;;;;;;;9.80;8.90;;;19.20;1.00;;;;;;6138440;23;20534;-81
2022/07/04 03:12:17;;;;;;;9.87;9.17;;;19.20;1.00;;;;;;6138383;23;20432;-81
2022/07/04 03:14:45;;;;;;;9.83;9.03;;;19.20;1.00;;;;;;6138955;23;20940;-83
2022/07/04 03:17:16;;;;;;;10.67;9.77;;;19.20;1.00;;;;;;6137617;23;20455;-82
2022/07/04 03:19:43;;;;;;;10.67;9.87;;;19.20;1.00;;;;;;6138828;23;20396;-85
2022/07/04 03:22:10;;;;;;;10.97;10.10;;;19.10;1.00;;;;;;6140888;23;20963;-86
2022/07/04 03:24:38;;;;;;;11.67;10.53;;;19.10;1.00;;;;;;6141775;23;20432;-85
2022/07/04 03:27:05;;;;;;;10.33;9.53;;;19.20;1.00;;;;;;6139055;23;20448;-85
2022/07/04 03:29:37;;;;;;;11.40;10.40;;;19.20;1.00;;;;;;6140761;23;20937;-81
2022/07/04 03:32:06;;;;;;;11.97;11.00;;;19.20;1.00;;;;;;6141728;23;20511;-85
2022/07/04 03:34:38;;;;;;;12.87;11.60;;;19.20;1.00;;;;;;6140970;23;20559;-85
2022/07/04 03:37:05;;;;;;;11.43;10.63;;;19.20;1.00;;;;;;6140511;23;20551;-81
2022/07/04 03:39:37;;;;;;;13.57;12.30;;;19.20;1.00;;;;;;6139568;23;20514;-80
2022/07/04 03:42:06;;;;;;;11.77;10.57;;;19.20;1.00;;;;;;6139371;23;20396;-81
2022/07/04 03:44:38;;;;;;;13.30;12.17;;;19.20;1.00;;;;;;6138881;23;21121;-82
2022/07/04 03:47:07;;;;;;;11.50;10.60;;;19.20;1.00;;;;;;6140890;23;20389;-82
2022/07/04 03:49:37;;;;;;;11.63;10.70;;;19.20;1.00;;;;;;6139563;23;20642;-85
2022/07/04 03:52:04;;;;;;;11.03;9.87;;;19.20;1.00;;;;;;6140130;23;20524;-81
2022/07/04 03:54:36;;;;;;;11.17;10.37;;;19.20;1.00;;;;;;6139393;23;20510;-81
2022/07/04 03:57:03;;;;;;;11.60;10.80;;;19.10;1.00;;;;;;6139765;23;20396;-83
2022/07/04 03:59:30;;;;;;;13.37;11.40;;;19.20;1.00;;;;;;6138224;23;20447;-85
2022/07/04 04:01:58;;;;;;;11.50;10.50;;;19.20;1.00;;;;;;6136783;23;20412;-83
2022/07/04 04:07:10;;;;;;;12.17;11.27;;;19.30;1.00;;;;;;6136765;23;20442;-82
2022/07/04 04:09:40;;;;;;;12.47;11.47;;;19.30;1.00;;;;;;6134273;23;20400;-82
2022/07/04 04:12:07;;;;;;;12.60;11.67;;;19.20;1.00;;;;;;6138603;23;20447;-83
2022/07/04 04:14:42;;;;;;;11.87;10.90;;;19.30;1.00;;;;;;6134247;23;20398;-82
2022/07/04 04:17:09;;;;;;;11.10;10.20;;;19.30;1.00;;;;;;6135914;23;20507;-86
2022/07/04 04:19:39;;;;;;;13.60;12.40;;;19.30;1.00;;;;;;6135793;23;20419;-82
2022/07/04 04:22:06;;;;;;;12.87;11.70;;;19.30;1.00;;;;;;6139076;23;20498;-82
2022/07/04 04:24:42;;;;;;;12.07;11.17;;;19.40;1.00;;;;;;6139935;23;20403;-83
2022/07/04 04:27:16;;;;;;;12.20;11.20;;;19.50;1.00;;;;;;6144371;23;20401;-83
2022/07/04 04:32:32;;;;;;;12.00;11.00;;;19.70;1.00;;;;;;6129251;23;20837;-75
2022/07/04 04:35:00;;;;;;;10.40;9.47;;;19.80;1.00;;;;;;6121607;23;20435;-76
2022/07/04 04:37:28;;;;;;;13.53;12.53;;;19.80;1.00;;;;;;6134949;23;20427;-76
2022/07/04 04:39:58;;;;;;;12.70;11.70;;;19.80;1.00;;;;;;6095892;23;20478;-75
2022/07/04 04:42:33;;;;;;;13.67;12.37;;;19.80;1.00;;;;;;6135382;23;20408;-75
2022/07/04 04:45:06;;;;;;;13.37;12.30;;;19.80;1.00;;;;;;6137150;23;20422;-75
2022/07/04 04:47:38;;;;;;;11.23;10.20;;;19.70;1.00;;;;;;6132471;23;20574;-74
2022/07/04 04:50:11;;;;;;;12.90;11.67;;;19.70;1.00;;;;;;6136479;23;20948;-79
2022/07/04 04:52:39;;;;;;;12.17;10.97;;;19.70;1.00;;;;;;6134297;23;20447;-79
2022/07/04 04:55:09;;;;;;;12.37;11.17;;;19.80;1.00;;;;;;6143796;23;20467;-74
2022/07/04 04:57:50;;;;;;;11.33;10.33;;;19.80;1.00;;;;;;6124027;23;21691;-80
2022/07/04 05:00:20;;;;;;;11.80;10.70;;;19.80;1.00;;;;;;6137131;23;20424;-76
2022/07/04 05:02:59;;;;;;;11.03;10.03;;;19.80;1.00;;;;;;6138935;23;20384;-78
2022/07/04 05:05:29;;;;;;;11.73;10.67;;;19.80;1.00;;;;;;6141457;23;20395;-79
2022/07/04 05:08:09;;;;;;;10.43;9.63;;;19.90;1.00;;;;;;6141546;23;20407;-79
2022/07/04 05:10:41;;;;;;;10.67;9.80;;;19.90;1.00;;;;;;6138656;23;20455;-76
2022/07/04 05:13:08;;;;;;;11.50;10.50;;;19.90;1.00;;;;;;6139766;23;20388;-77
2022/07/04 05:15:46;;;;;;;10.93;10.03;;;20.00;1.00;;;;;;6137453;23;20404;-78
2022/07/04 05:18:20;;;;;;;11.80;10.90;;;20.10;1.00;;;;;;6138504;23;20415;-74
2022/07/04 05:20:49;;;;;;;12.07;10.67;;;20.20;1.00;;;;;;6137585;23;20388;-76
2022/07/04 05:23:18;;;;;;;11.30;10.30;;;20.40;1.00;;;;;;6133156;23;20443;-77
2022/07/04 05:25:45;;;;;;;10.90;9.90;;;20.60;1.00;;;;;;6135930;23;20866;-75
2022/07/04 05:28:14;;;;;;;10.47;9.53;;;20.80;1.00;;;;;;6135016;23;20448;-76
2022/07/04 05:30:42;;;;;;;10.63;9.73;;;20.80;1.00;;;;;;6135810;23;20479;-74
2022/07/04 05:33:10;;;;;;;10.67;9.90;;;20.80;1.00;;;;;;6137057;23;20439;-76
2022/07/04 05:35:38;;;;;;;9.67;8.97;;;20.80;1.00;;;;;;6109110;23;20547;-77
2022/07/04 05:38:08;;;;;;;10.70;9.70;;;20.90;1.00;;;;;;6139633;23;20447;-74
2022/07/04 05:40:38;;;;;;;9.33;8.53;;;20.90;1.00;;;;;;6138970;23;20428;-76
2022/07/04 05:43:05;;;;;;;9.23;8.23;;;20.90;1.00;;;;;;6135380;23;20490;-75
2022/07/04 05:45:38;;;;;;;9.13;8.43;;;21.00;1.00;;;;;;6137329;23;20438;-76
2022/07/04 05:48:07;;;;;;;9.37;8.77;;;20.90;1.00;;;;;;6108832;23;20475;-74
2022/07/04 05:50:40;;;;;;;8.53;7.60;;;20.80;1.00;;;;;;6129460;23;20548;-78
2022/07/04 05:53:08;;;;;;;8.37;7.60;;;20.70;1.00;;;;;;6122620;23;20427;-78
2022/07/04 05:55:39;;;;;;;8.70;7.90;;;20.70;1.00;;;;;;6138935;23;20396;-77
2022/07/04 05:58:06;;;;;;;8.23;7.53;;;20.70;1.00;;;;;;6139548;23;21237;-76
2022/07/04 06:00:39;;;;;;;7.40;6.80;;;20.80;1.00;;;;;;6139993;23;20463;-76
2022/07/04 06:03:07;;;;;;;6.90;6.30;;;21.00;1.00;;;;;;6137821;23;20400;-77
2022/07/04 06:05:41;;;;;;;7.70;7.00;;;21.00;1.00;;;;;;6137515;23;20423;-77
2022/07/04 06:08:10;;;;;;;6.47;5.97;;;21.10;1.00;;;;;;6141306;23;20935;-78
2022/07/04 06:10:39;;;;;;;8.03;7.10;;;21.00;1.00;;;;;;6141198;23;20419;-75
2022/07/04 06:13:06;;;;;;;7.07;6.47;;;21.10;1.00;;;;;;6141035;23;20447;-78
2022/07/04 06:15:38;;;;;;;4.80;4.40;;;21.20;1.00;;;;;;6140991;23;20424;-76
2022/07/04 06:18:05;;;;;;;5.73;5.23;;;21.40;1.00;;;;;;6137889;23;20451;-78
2022/07/04 06:20:35;;;;;;;4.73;4.43;;;21.50;1.00;;;;;;6139150;23;20498;-76
2022/07/04 06:23:03;;;;;;;7.60;5.70;;;21.60;1.00;;;;;;6139714;23;20428;-76
2022/07/04 06:25:40;;;;;;;5.40;4.90;;;21.60;1.00;;;;;;6138971;23;20438;-77
2022/07/04 06:28:08;;;;;;;5.07;4.43;;;21.50;1.00;;;;;;6107427;23;20425;-75
2022/07/04 06:30:37;;;;;;;5.83;5.00;;;21.50;1.00;;;;;;6107723;23;20416;-77
2022/07/04 06:33:08;;;;;;;5.60;5.10;;;21.40;1.00;;;;;;6109679;23;20437;-75
2022/07/04 06:35:51;;;;;;;6.53;4.90;;;21.40;1.00;;;;;;6106952;23;20517;-75
2022/07/04 06:38:20;;;;;;;4.70;4.33;;;21.50;1.00;;;;;;6107423;23;20417;-75
2022/07/04 06:40:57;;;;;;;3.60;3.30;;;21.50;1.00;;;;;;6109547;23;20452;-76
2022/07/04 06:43:28;;;;;;;3.87;3.47;;;21.50;1.00;;;;;;6108726;23;20408;-76
2022/07/04 06:45:59;;;;;;;2.90;2.63;;;21.50;1.00;;;;;;6108362;23;20429;-77
2022/07/04 06:48:29;;;;;;;3.17;2.33;;;21.50;1.00;;;;;;6110396;23;20401;-75
2022/07/04 06:50:56;;;;;;;3.10;2.20;;;21.60;1.00;;;;;;6084917;23;20515;-80
2022/07/04 06:53:23;;;;;;;2.10;1.87;;;21.70;1.00;;;;;;6109037;23;20436;-75
2022/07/04 06:55:52;;;;;;;2.07;1.50;;;21.70;1.00;;;;;;6105468;23;20432;-77
2022/07/04 06:58:19;;;;;;;2.23;1.50;;;21.70;1.00;;;;;;6110253;23;20969;-75
2022/07/04 07:00:46;;;;;;;2.40;1.93;;;21.60;1.00;;;;;;6103549;23;20432;-76
2022/07/04 07:03:18;;;;;;;1.60;1.50;;;21.60;1.00;;;;;;6109229;23;20409;-76
2022/07/04 07:05:49;;;;;;;2.20;1.67;;;21.60;1.00;;;;;;6109136;23;20235;-82
2022/07/04 07:08:18;;;;;;;2.43;2.23;;;21.80;1.00;;;;;;6111608;23;20461;-78
2022/07/04 07:10:45;;;;;;;1.60;1.50;;;21.90;1.00;;;;;;6112420;23;20817;-79
2022/07/04 07:13:18;;;;;;;2.70;1.83;;;22.10;1.00;;;;;;6113330;23;20409;-78
2022/07/04 07:15:45;;;;;;;2.63;1.30;;;22.10;1.00;;;;;;6098027;23;20414;-80
2022/07/04 07:18:16;;;;;;;3.57;2.20;;;22.10;1.00;;;;;;6137185;23;20425;-79
2022/07/04 07:20:45;;;;;;;1.83;1.43;;;22.10;1.00;;;;;;6109935;23;20409;-77
2022/07/04 07:23:13;;;;;;;1.60;1.50;;;22.20;1.00;;;;;;6111394;23;20496;-77
2022/07/04 07:25:46;;;;;;;4.10;1.20;;;22.30;1.00;;;;;;6113234;23;20435;-79
2022/07/04 07:28:17;;;;;;;1.67;1.57;;;22.20;1.00;;;;;;6085784;23;20407;-76
2022/07/04 07:30:48;;;;;;;1.43;1.33;;;22.30;1.00;;;;;;6106756;23;20384;-76
2022/07/04 07:33:18;;;;;;;2.40;2.20;;;22.40;1.00;;;;;;6111701;23;20429;-77
2022/07/04 07:35:50;;;;;;;2.10;1.57;;;22.50;1.00;;;;;;6109792;23;20405;-78
2022/07/04 07:38:19;;;;;;;3.33;1.93;;;22.60;1.00;;;;;;6116116;23;20400;-78
2022/07/04 07:40:49;;;;;;;3.00;1.97;;;22.70;1.00;;;;;;6114874;23;20443;-79
2022/07/04 07:43:20;;;;;;;4.07;2.23;;;22.80;1.00;;;;;;6120666;23;20496;-77
2022/07/04 07:45:51;;;;;;;3.87;1.63;;;22.90;1.00;;;;;;6117955;23;20463;-79
2022/07/04 07:48:20;;;;;;;2.40;1.40;;;23.10;1.00;;;;;;6112795;23;20448;-79
2022/07/04 07:50:49;;;;;;;1.80;1.47;;;23.30;1.00;;;;;;6113918;23;20408;-80
2022/07/04 07:53:22;;;;;;;3.87;1.60;;;23.50;1.00;;;;;;6106070;23;20491;-78
2022/07/04 07:55:57;;;;;;;1.73;1.60;;;23.60;1.00;;;;;;6123921;23;20450;-78
2022/07/04 07:58:28;;;;;;;1.33;1.23;;;23.60;1.00;;;;;;6112293;23;20405;-79
2022/07/04 08:00:55;;;;;;;1.40;1.30;;;23.60;1.00;;;;;;6110324;23;20968;-78
2022/07/04 08:06:08;;;;;;;1.83;1.10;;;23.60;1.00;;;;;;6130655;23;20427;-77
2022/07/04 08:08:37;;;;;;;2.80;1.87;;;23.70;1.00;;;;;;6139110;23;20416;-79
2022/07/04 08:11:04;;;;;;;2.30;1.33;;;23.80;1.00;;;;;;6141114;23;20494;-78
2022/07/04 08:13:38;;;;;;;3.20;2.30;;;23.80;1.00;;;;;;6142530;23;20499;-79
2022/07/04 08:16:08;;;;;;;3.57;2.23;;;23.70;1.00;;;;;;6142502;23;20442;-79
2022/07/04 08:18:38;;;;;;;3.10;1.40;;;23.70;1.00;;;;;;6140875;23;20408;-79
2022/07/04 08:21:05;;;;;;;4.90;1.93;;;23.80;1.00;;;;;;6142088;23;20440;-78
2022/07/04 08:23:40;;;;;;;2.13;1.20;;;24.00;1.00;;;;;;6139942;23;21150;-78
2022/07/04 08:26:09;;;;;;;2.30;1.40;;;23.90;1.00;;;;;;6115913;23;20422;-78
2022/07/04 08:28:40;;;;;;;5.73;1.50;;;23.80;1.00;;;;;;6139000;23;20431;-77
2022/07/04 08:31:07;;;;;;;3.63;1.87;;;23.70;1.00;;;;;;6139147;23;20527;-78
2022/07/04 08:33:44;;;;;;;2.33;1.63;;;23.60;1.00;;;;;;6138690;23;20411;-78
2022/07/04 08:36:11;;;;;;;1.60;1.40;;;23.70;1.00;;;;;;6121523;23;20414;-78
2022/07/04 08:38:39;;;;;;;7.23;2.07;;;23.80;1.00;;;;;;6138649;23;20456;-79
2022/07/04 08:41:08;;;;;;;2.40;1.53;;;23.90;1.00;;;;;;6139683;23;20433;-79
2022/07/04 08:43:40;;;;;;;3.83;1.90;;;23.90;1.00;;;;;;6139834;23;20463;-77
2022/07/04 08:46:15;;;;;;;3.20;1.33;;;24.00;1.00;;;;;;6141386;23;20523;-78
2022/07/04 08:48:43;;;;;;;2.70;1.37;;;23.80;1.00;;;;;;6141031;23;20502;-79
2022/07/04 08:51:20;;;;;;;1.80;1.20;;;23.60;1.00;;;;;;6139808;23;20529;-78
2022/07/04 08:54:00;;;;;;;2.20;1.53;;;23.60;1.00;;;;;;6133368;23;20494;-79
2022/07/04 08:59:21;;;;;;;2.17;1.43;;;23.40;1.00;;;;;;6105066;23;20503;-78
2022/07/04 09:01:48;;;;;;;5.07;2.07;;;23.50;1.00;;;;;;6127156;23;20437;-79
2022/07/04 09:04:22;;;;;;;2.27;1.43;;;23.80;1.00;;;;;;6109221;23;20429;-77
2022/07/04 09:06:49;;;;;;;2.67;1.60;;;24.00;1.00;;;;;;6111836;23;20515;-78
2022/07/04 09:09:19;;;;;;;1.60;1.50;;;24.00;1.00;;;;;;6113844;23;20372;-78
2022/07/04 09:11:46;;;;;;;6.40;1.83;;;24.00;1.00;;;;;;6110643;23;20424;-76
2022/07/04 09:14:19;;;;;;;3.00;1.70;;;23.90;1.00;;;;;;6111285;23;20440;-79
2022/07/04 09:16:50;;;;;;;1.80;1.00;;;23.90;1.00;;;;;;6110091;23;20432;-77
2022/07/04 09:19:21;;;;;;;2.47;1.40;;;23.90;1.00;;;;;;6109585;23;20388;-75
2022/07/04 09:21:50;;;;;;;2.17;1.53;;;24.00;1.00;;;;;;6110918;23;20503;-75
2022/07/04 09:24:44;;;;;;;1.87;1.57;;;24.00;1.00;;;;;;6110368;23;20419;-77
2022/07/04 09:27:11;;;;;;;3.57;1.50;;;24.20;1.00;;;;;;6116789;23;20928;-75
2022/07/04 09:29:57;;;;;;;2.20;1.60;;;24.20;1.00;;;;;;6115341;23;20440;-77
2022/07/04 09:32:36;;;;;;;3.97;1.90;;;24.40;1.00;;;;;;6107643;23;20433;-77
2022/07/04 09:35:09;;;;;;;2.30;2.10;;;24.60;1.00;;;;;;6139971;23;20423;-78
2022/07/04 09:37:41;;;;;;;3.63;1.70;;;24.80;1.00;;;;;;6141166;23;20410;-76
2022/07/04 09:40:12;;;;;;;2.30;1.43;;;25.00;1.00;;;;;;6142892;23;20958;-76
2022/07/04 09:42:41;;;;;;;2.90;1.50;;;25.40;1.00;;;;;;6140045;23;20424;-75
2022/07/04 09:45:17;;;;;;;3.07;1.30;;;26.40;1.00;;;;;;6141621;23;20893;-76
2022/07/04 09:47:46;;;;;;;2.37;1.60;;;27.80;1.00;;;;;;6140627;23;20523;-76
2022/07/04 09:50:20;;;;;;;8.30;2.40;;;29.20;1.00;;;;;;6140002;23;20473;-76
2022/07/04 09:52:53;;;;;;;2.13;1.40;;;30.40;1.00;;;;;;6137591;23;20447;-77
2022/07/04 09:55:26;;;;;;;2.90;1.57;;;31.50;1.00;;;;;;6141712;23;20486;-76
2022/07/04 09:57:59;;;;;;;2.70;1.60;;;32.20;1.00;;;;;;6136039;23;20379;-75
2022/07/04 10:00:30;;;;;;;1.60;1.20;;;32.40;1.00;;;;;;6109637;23;20444;-78
2022/07/04 10:03:25;;;;;;;2.87;1.37;;;32.80;1.00;;;;;;6111618;23;20408;-76
2022/07/04 10:06:05;;;;;;;2.70;1.20;;;33.10;1.00;;;;;;6110890;23;21214;-78
2022/07/04 10:08:35;;;;;;;1.40;0.97;;;33.30;1.00;;;;;;6107389;23;20440;-76
2022/07/04 10:11:07;;;;;;;1.67;1.40;;;33.40;1.00;;;;;;6110156;23;20404;-76
2022/07/04 10:13:40;;;;;;;1.60;1.37;;;33.60;1.00;;;;;;6108194;23;20393;-76
2022/07/04 10:16:09;;;;;;;2.40;1.53;;;34.00;1.00;;;;;;6110027;23;20403;-76
2022/07/04 10:18:41;;;;;;;5.63;1.33;;;33.80;1.00;;;;;;6095057;23;20405;-78
2022/07/04 10:21:08;;;;;;;2.23;1.30;;;33.60;1.00;;;;;;6110822;23;20412;-76
2022/07/04 10:23:40;;;;;;;2.30;1.60;;;33.90;1.00;;;;;;6103934;23;20651;-78
2022/07/04 10:26:07;;;;;;;2.43;1.13;;;34.00;1.00;;;;;;6111054;23;20930;-76
2022/07/04 10:28:40;;;;;;;1.80;1.70;;;33.80;1.00;;;;;;6109663;23;20437;-77
2022/07/04 10:31:09;;;;;;;2.63;1.30;;;34.30;1.00;;;;;;6111228;23;20496;-76
2022/07/04 10:33:41;;;;;;;2.93;1.60;;;34.10;1.00;;;;;;6107156;23;20397;-79
2022/07/04 10:36:18;;;;;;;2.03;1.20;;;32.80;1.00;;;;;;6111202;23;20421;-77
2022/07/04 10:38:50;;;;;;;2.43;1.40;;;31.90;1.00;;;;;;6109326;23;20476;-78
2022/07/04 10:41:21;;;;;;;2.03;1.20;;;30.30;1.00;;;;;;6112594;23;20389;-76
2022/07/04 10:44:18;;;;;;;1.73;1.43;;;29.30;1.00;;;;;;6098576;23;20417;-79
2022/07/04 10:46:49;;;;;;;2.30;1.50;;;29.00;1.00;;;;;;6110176;23;20459;-77
2022/07/04 10:49:23;;;;;;;1.23;1.13;;;30.80;1.00;;;;;;6113792;23;20462;-76
2022/07/04 10:51:56;;;;;;;2.33;1.43;;;31.70;1.00;;;;;;6113738;23;20412;-79
2022/07/04 10:54:31;;;;;;;3.33;1.53;;;31.80;1.00;;;;;;6113671;23;20500;-78
2022/07/04 10:57:11;;;;;;;3.10;1.20;;;32.60;1.00;;;;;;6113452;23;20423;-76
2022/07/04 10:59:41;;;;;;;1.27;1.10;;;34.10;1.00;;;;;;6134544;23;20395;-78
2022/07/04 11:02:40;;;;;;;1.73;1.00;;;35.40;1.00;;;;;;6139391;23;20826;-77
2022/07/04 11:05:09;;;;;;;2.13;1.70;;;35.50;1.00;;;;;;6139797;23;20419;-75
2022/07/04 11:08:02;;;;;;;3.00;2.17;;;34.80;1.00;;;;;;6139074;23;20521;-77
2022/07/04 11:10:38;;;;;;;1.80;1.33;;;35.50;1.00;;;;;;6116159;23;20444;-78
2022/07/04 11:13:19;;;;;;;3.50;1.73;;;36.20;1.00;;;;;;6131038;23;20414;-78
2022/07/04 11:16:07;;;;;;;1.93;1.70;;;35.30;1.00;;;;;;6123138;23;20419;-76
2022/07/04 11:18:46;;;;;;;1.50;0.97;;;34.00;1.00;;;;;;6138700;23;20396;-75
2022/07/04 11:21:24;;;;;;;2.90;1.50;;;32.00;1.00;;;;;;6127315;23;20562;-78
2022/07/04 11:23:59;;;;;;;1.90;1.43;;;30.90;1.00;;;;;;6139407;23;20467;-77
2022/07/04 11:26:26;;;;;;;5.23;2.03;;;31.80;1.00;;;;;;6142103;23;20423;-78
2022/07/04 11:28:53;;;;;;;2.00;1.27;;;33.10;1.00;;;;;;6136953;23;20973;-76
2022/07/04 11:31:22;;;;;;;2.47;1.07;;;33.60;1.00;;;;;;6134390;23;20862;-76
2022/07/04 11:33:55;;;;;;;4.03;1.87;;;34.10;1.00;;;;;;6133252;23;20748;-77
2022/07/04 11:36:22;;;;;;;2.50;1.57;;;33.60;1.00;;;;;;6134353;23;20435;-78
2022/07/04 11:38:58;;;;;;;4.67;1.50;;;32.40;1.00;;;;;;6106920;23;20471;-76
2022/07/04 11:47:12;;;;;;;3.00;1.80;;;30.80;1.00;;;;;;6095813;23;20403;-76
2022/07/04 11:49:48;;;;;;;3.00;2.43;;;31.20;1.00;;;;;;6134195;23;20487;-77
2022/07/04 11:52:16;;;;;;;1.63;1.40;;;31.00;1.00;;;;;;6134481;23;20522;-78
2022/07/04 11:54:43;;;;;;;2.10;1.13;;;32.80;1.00;;;;;;6131243;23;20436;-75
2022/07/04 11:57:22;;;;;;;1.60;1.30;;;34.60;1.00;;;;;;6120472;23;20420;-75
2022/07/04 12:00:00;;;;;;;2.13;1.53;;;35.60;1.00;;;;;;6136290;23;20838;-77
2022/07/04 12:02:30;;;;;;;1.57;1.10;;;36.10;1.00;;;;;;6110109;23;20435;-76
2022/07/04 12:04:59;;;;;;;1.40;1.30;;;36.80;1.00;;;;;;6133308;23;20468;-75
2022/07/04 12:07:28;;;;;;;3.03;1.23;;;36.40;1.00;;;;;;6130434;23;20455;-78
2022/07/04 12:09:56;;;;;;;2.47;1.27;;;36.20;1.00;;;;;;6135314;23;20510;-77
2022/07/04 12:12:28;;;;;;;2.93;1.50;;;35.90;1.00;;;;;;6137831;23;20904;-76
2022/07/04 12:15:01;;;;;;;1.27;1.17;;;35.30;1.00;;;;;;6138215;23;20435;-74
2022/07/04 12:17:33;;;;;;;2.13;1.40;;;36.10;1.00;;;;;;6141615;23;20392;-77
2022/07/04 12:20:20;;;;;;;1.40;1.30;;;37.30;1.00;;;;;;6139735;23;20427;-77
2022/07/04 12:22:58;;;;;;;1.10;0.87;;;37.70;1.00;;;;;;6138825;23;21247;-77
2022/07/04 12:25:31;;;;;;;2.27;1.40;;;38.20;1.00;;;;;;6141883;23;20427;-76
2022/07/04 12:28:01;;;;;;;1.67;1.20;;;38.70;1.00;;;;;;6140762;23;20412;-76
2022/07/04 12:30:35;;;;;;;3.43;1.40;;;38.00;1.00;;;;;;6142918;23;20427;-78
2022/07/04 12:33:20;;;;;;;1.57;1.27;;;37.90;1.00;;;;;;6102033;23;20475;-81
2022/07/04 12:35:52;;;;;;;1.87;1.30;;;36.10;1.00;;;;;;6124388;23;20392;-79
2022/07/04 12:38:41;;;;;;;2.13;1.10;;;36.20;1.00;;;;;;6142637;23;20374;-80
2022/07/04 12:41:11;;;;;;;1.60;1.00;;;36.40;1.00;;;;;;6116605;23;20500;-79
2022/07/04 12:44:00;;;;;;;1.50;1.10;;;36.10;1.00;;;;;;6112613;23;20475;-77
2022/07/04 12:46:30;;;;;;;2.00;1.27;;;35.90;1.00;;;;;;6087643;23;20412;-81
2022/07/04 12:49:02;;;;;;;4.60;2.10;;;36.80;1.00;;;;;;6114133;23;20419;-77
2022/07/04 12:51:32;;;;;;;1.63;1.27;;;38.20;1.00;;;;;;6121034;23;20429;-82
2022/07/04 12:54:07;;;;;;;1.60;1.17;;;38.60;1.00;;;;;;6102424;23;20413;-79
2022/07/04 12:56:40;;;;;;;4.50;1.77;;;39.10;1.00;;;;;;6109984;23;20450;-81
2022/07/04 12:59:09;;;;;;;2.60;1.90;;;39.50;1.00;;;;;;6110963;23;20420;-79
2022/07/04 13:01:41;;;;;;;2.43;1.30;;;40.30;1.00;;;;;;6111849;23;20422;-79
2022/07/04 13:04:08;;;;;;;4.20;1.00;;;41.10;1.00;;;;;;6111691;23;20428;-80
2022/07/04 13:06:52;;;;;;;1.80;1.20;;;41.70;1.00;;;;;;6110676;23;20401;-79
2022/07/04 13:09:20;;;;;;;4.50;2.30;;;40.40;1.00;;;;;;6112018;23;20452;-80
2022/07/04 13:14:31;;;;;;;1.73;1.40;;;40.10;1.00;;;;;;6097497;23;20428;-77
2022/07/04 13:17:01;;;;;;;2.53;0.93;;;40.20;1.00;;;;;;6101900;23;20474;-77
2022/07/04 13:19:33;;;;;;;3.20;1.60;;;40.20;1.00;;;;;;6140447;23;20400;-78
2022/07/04 13:22:11;;;;;;;1.13;0.90;;;40.30;1.00;;;;;;6139020;23;20497;-81
2022/07/04 13:24:41;;;;;;;1.50;1.10;;;40.50;1.00;;;;;;6141688;23;20494;-77
2022/07/04 13:27:11;;;;;;;3.03;1.27;;;38.60;1.00;;;;;;6136725;23;20434;-78
2022/07/04 13:29:45;;;;;;;6.23;2.90;;;37.70;1.00;;;;;;6141617;23;20428;-77
2022/07/04 13:32:13;;;;;;;1.77;0.97;;;37.20;1.00;;;;;;6131214;23;20428;-81
2022/07/04 13:34:43;;;;;;;2.33;1.30;;;36.30;1.00;;;;;;6111831;23;20399;-82
2022/07/04 13:37:15;;;;;;;1.57;1.30;;;34.90;1.00;;;;;;6145606;23;20419;-78
2022/07/04 13:40:01;;;;;;;1.47;1.30;;;34.10;1.00;;;;;;6141186;23;20422;-81
2022/07/04 13:48:07;;;;;;;1.50;1.13;;;38.60;1.00;;;;;;6138221;23;20448;-78
2022/07/04 13:50:50;;;;;;;3.30;2.70;;;39.40;1.00;;;;;;6129382;23;20407;-79